Accueil
METAR-TAF:

METAR-TAF

Aéroports :

Sukkur, Pakistan

latitude: 27-43-19N, longitude: 068-47-31E, altitude: 60 m

Observation

Le bulletin a été fait il y a 42 minutes, à 06:00 UTC
Vent calme
Température 38°C
Humidité 54%
Pression 996 hPa
Visibilité: 4000 m
Nuages épars à une hauteur de 20000 ft
brume sèche,

METAR: OPSK 140600Z 00000KT 4000 HZ SCT200 38/27 Q0996 NOSIG

Heure: 11:42 (06:42 UTC)

Prévision

Le bulletin a été fait il y a 1 heure et 42 minutes, à 05:00 UTC
Prévision valable du 14 à 06 UTC au 15 à 06 UTC
Vent 7 kt de sud-est avec des rafales jusqu'à 17 kt
Visibilité: 5000 m
Nuages épars à une hauteur de 3000 ft
brume sèche
A partir de 14 à 1500 UTC
Vent 7 kt de sud avec des rafales jusqu'à 17 kt
Visibilité: 4000 m
Nuages épars à une hauteur de 3000 ft
brume sèche,

TAF: OPSK 140500Z 1406/1506 14007G17KT 5000 HZ SCT030 FM141500 18007G17KT 4000 HZ SCT030

Observations et prévisions météorologiques de plus de 4000 aéroports (messages METAR et TAF).

Les stations disponibles sont représentées par des disques jaunes et rouges sur la carte.

Passer la souris dessus pour voir le nom de la station.

Cliquer dessus pour voir les observations et prévisions météorologiques.

Pour changer de carte: cliquez sur les boutons verts avec une croix noire pour zoomer, sur le bouton vert avec un tiret pour effectuer un zoom arrière, ou sur les flèches vertes pour les cartes adjacentes.


METAR-TAF: